Time;durP1;ratioP1;P1;durP2;ratioP2;P2;SDS_P1;SDS_P2;PMS_P1;PMS_P2;Temp;Humidity;BMP_temperature;BMP_pressure;BME280_temperature;BME280_humidity;BME280_pressure;Samples;Min_cycle;Max_cycle;Signal;HPM_P1;HPM_P2
2023/02/19 00:01:36;;;;;;;13.10;11.80;;;5.90;99.90;;;;;;4993084;28;20768;-82
2023/02/19 00:04:06;;;;;;;10.95;9.82;;;5.80;99.90;;;;;;4990918;28;20404;-82
2023/02/19 00:06:35;;;;;;;13.48;12.07;;;5.90;99.90;;;;;;4974999;28;20397;-81
2023/02/19 00:09:02;;;;;;;10.33;9.07;;;5.70;99.90;;;;;;4962311;28;20387;-81
2023/02/19 00:11:32;;;;;;;9.23;8.20;;;5.70;99.90;;;;;;4964510;28;20392;-82
2023/02/19 00:13:59;;;;;;;11.18;9.23;;;5.90;99.90;;;;;;4956915;28;20417;-81
2023/02/19 00:16:31;;;;;;;10.63;8.98;;;5.80;99.90;;;;;;4982449;28;20397;-82
2023/02/19 00:19:01;;;;;;;9.63;8.63;;;5.80;99.90;;;;;;4985909;28;20896;-82
2023/02/19 00:21:27;;;;;;;10.00;9.00;;;5.80;99.90;;;;;;4988035;28;20380;-82
2023/02/19 00:23:56;;;;;;;9.52;8.45;;;5.90;99.90;;;;;;4990875;28;20372;-82
2023/02/19 00:26:22;;;;;;;9.77;8.77;;;5.80;99.90;;;;;;4993451;28;20376;-82
2023/02/19 00:28:49;;;;;;;10.00;8.60;;;5.80;99.90;;;;;;4991887;28;20987;-82
2023/02/19 00:31:24;;;;;;;9.43;8.52;;;5.80;99.90;;;;;;4994942;28;20373;-81
2023/02/19 00:33:52;;;;;;;10.15;8.93;;;5.90;99.90;;;;;;4992300;28;20398;-81
2023/02/19 00:36:19;;;;;;;9.57;8.57;;;5.90;99.90;;;;;;4990905;28;20376;-81
2023/02/19 00:38:45;;;;;;;9.00;8.10;;;5.90;99.90;;;;;;4995009;28;20428;-81
2023/02/19 00:41:18;;;;;;;9.00;7.50;;;5.80;99.90;;;;;;4994583;28;20373;-81
2023/02/19 00:43:54;;;;;;;8.88;7.20;;;5.80;99.90;;;;;;4993396;28;20435;-81
2023/02/19 00:46:23;;;;;;;9.45;7.57;;;5.70;99.90;;;;;;4994893;28;20388;-82
2023/02/19 00:48:51;;;;;;;9.52;7.30;;;5.60;99.90;;;;;;4993796;28;20435;-83
2023/02/19 00:51:18;;;;;;;9.15;7.40;;;5.40;99.90;;;;;;4989853;28;20373;-82
2023/02/19 00:53:44;;;;;;;8.63;7.47;;;5.30;99.90;;;;;;4965843;28;20408;-82
2023/02/19 00:56:10;;;;;;;9.40;7.30;;;5.30;99.90;;;;;;4968037;28;20392;-82
2023/02/19 00:58:36;;;;;;;9.18;7.47;;;5.30;99.90;;;;;;4966604;28;20391;-82
2023/02/19 01:01:02;;;;;;;9.40;8.15;;;5.20;99.90;;;;;;4972799;28;20419;-83
2023/02/19 01:03:28;;;;;;;8.67;7.77;;;5.30;99.90;;;;;;4981404;28;20468;-83
2023/02/19 01:05:54;;;;;;;9.13;7.17;;;5.30;99.90;;;;;;4972617;28;20811;-81
2023/02/19 01:08:20;;;;;;;10.63;7.37;;;5.30;99.90;;;;;;4966613;28;20392;-82
2023/02/19 01:10:46;;;;;;;7.95;7.10;;;5.40;99.90;;;;;;4971401;28;20401;-82
2023/02/19 01:13:12;;;;;;;9.88;7.72;;;5.30;99.90;;;;;;4967973;28;20511;-80
2023/02/19 01:15:39;;;;;;;8.27;7.17;;;5.30;99.90;;;;;;4971805;28;21261;-80
2023/02/19 01:18:05;;;;;;;8.38;6.90;;;5.30;99.90;;;;;;5000637;28;20389;-81
2023/02/19 01:20:31;;;;;;;7.93;7.13;;;5.40;99.90;;;;;;4986815;28;20873;-82
2023/02/19 01:22:56;;;;;;;7.57;6.68;;;5.50;99.90;;;;;;5001340;28;20910;-81
2023/02/19 01:25:22;;;;;;;9.98;7.45;;;5.50;99.90;;;;;;4992941;28;20391;-82
2023/02/19 01:27:48;;;;;;;8.88;7.10;;;5.40;99.90;;;;;;4994060;28;20381;-82
2023/02/19 01:30:14;;;;;;;9.53;8.10;;;5.20;99.90;;;;;;4993525;28;20420;-82
2023/02/19 01:32:40;;;;;;;10.40;8.15;;;5.10;99.90;;;;;;4993892;28;21017;-83
2023/02/19 01:35:05;;;;;;;10.37;8.80;;;5.00;99.90;;;;;;4992356;28;20389;-82
2023/02/19 01:37:31;;;;;;;10.37;8.50;;;5.00;99.90;;;;;;4990593;28;20751;-82
2023/02/19 01:39:57;;;;;;;10.17;8.53;;;5.00;99.90;;;;;;4991784;28;20391;-81
2023/02/19 01:42:26;;;;;;;10.47;8.87;;;5.00;99.90;;;;;;4992681;28;20377;-82
2023/02/19 01:45:21;;;;;;;10.77;8.20;;;5.20;99.90;;;;;;4992524;28;20388;-83
2023/02/19 01:47:52;;;;;;;10.45;8.02;;;5.30;99.90;;;;;;4968827;28;20414;-82
2023/02/19 01:50:18;;;;;;;10.13;7.88;;;5.20;99.90;;;;;;4991206;28;20396;-82
2023/02/19 01:52:44;;;;;;;10.35;7.82;;;5.10;99.90;;;;;;4992497;28;20452;-82
2023/02/19 01:55:12;;;;;;;8.95;7.75;;;5.20;99.90;;;;;;4991708;28;21034;-82
2023/02/19 01:57:43;;;;;;;9.82;8.20;;;5.10;99.90;;;;;;4990560;28;21011;-82
2023/02/19 02:00:12;;;;;;;8.30;7.50;;;5.00;99.90;;;;;;4992733;28;20415;-82
2023/02/19 02:02:40;;;;;;;9.57;8.27;;;5.00;99.90;;;;;;4987394;28;20398;-83
2023/02/19 02:05:11;;;;;;;8.77;7.95;;;5.00;99.90;;;;;;4982154;28;20787;-83
2023/02/19 02:10:21;;;;;;;10.13;8.75;;;5.10;99.90;;;;;;5000679;28;20438;-82
2023/02/19 02:12:56;;;;;;;9.20;7.90;;;5.00;99.90;;;;;;4999800;28;20404;-82
2023/02/19 02:15:27;;;;;;;10.57;8.73;;;5.10;99.90;;;;;;5002458;28;21101;-82
2023/02/19 02:18:16;;;;;;;9.05;8.02;;;5.10;99.90;;;;;;4994653;28;20442;-82
2023/02/19 02:21:03;;;;;;;10.30;8.85;;;5.10;99.90;;;;;;5007270;28;20393;-83
2023/02/19 02:23:55;;;;;;;10.90;9.20;;;5.00;99.90;;;;;;4997597;28;20469;-82
2023/02/19 02:26:53;;;;;;;11.45;9.30;;;5.00;99.90;;;;;;4993283;28;20400;-81
2023/02/19 02:29:22;;;;;;;10.45;9.35;;;5.10;99.90;;;;;;4987220;28;20476;-84
2023/02/19 02:32:09;;;;;;;11.63;9.65;;;5.10;99.90;;;;;;4993304;28;20393;-82
2023/02/19 02:35:09;;;;;;;11.70;9.77;;;5.10;99.90;;;;;;4991446;28;20396;-83
2023/02/19 02:37:38;;;;;;;11.18;9.98;;;5.00;99.90;;;;;;4990417;28;20393;-82
2023/02/19 02:40:06;;;;;;;11.73;9.20;;;5.20;99.90;;;;;;4989866;28;20389;-83
2023/02/19 02:42:33;;;;;;;11.07;9.50;;;5.40;99.90;;;;;;4992988;28;20519;-82
2023/02/19 02:45:34;;;;;;;10.93;8.95;;;5.30;99.90;;;;;;4990957;28;20856;-83
2023/02/19 02:48:22;;;;;;;10.65;9.35;;;5.30;99.90;;;;;;4990563;28;20729;-82
2023/02/19 02:50:54;;;;;;;10.55;9.05;;;5.20;99.90;;;;;;4990530;28;20397;-83
2023/02/19 02:56:19;;;;;;;11.07;9.13;;;5.20;99.90;;;;;;4992002;28;20415;-82
2023/02/19 03:08:03;;;;;;;13.27;11.43;;;5.00;99.90;;;;;;4933152;29;20423;-83
2023/02/19 03:10:43;;;;;;;13.75;10.88;;;4.90;99.90;;;;;;4952803;28;20415;-83
2023/02/19 03:21:44;;;;;;;13.18;10.85;;;4.80;99.90;;;;;;4953739;29;20415;-83
2023/02/19 03:27:01;;;;;;;15.77;11.93;;;4.60;99.90;;;;;;4951890;28;20403;-83
2023/02/19 03:29:30;;;;;;;15.57;10.63;;;4.50;99.90;;;;;;4953283;28;20451;-83
2023/02/19 03:32:00;;;;;;;13.15;9.48;;;4.30;99.90;;;;;;4953618;28;20781;-82
2023/02/19 03:34:37;;;;;;;12.52;9.75;;;4.30;99.90;;;;;;4953623;28;20412;-84
2023/02/19 03:37:12;;;;;;;12.45;9.60;;;4.30;99.90;;;;;;4953310;29;20404;-83
2023/02/19 03:39:43;;;;;;;13.43;9.57;;;4.20;99.90;;;;;;4953804;29;20388;-83
2023/02/19 03:42:35;;;;;;;13.32;9.57;;;4.20;99.90;;;;;;4952069;29;20882;-81
2023/02/19 03:45:06;;;;;;;10.57;7.97;;;4.10;99.90;;;;;;4954253;29;20478;-82
2023/02/19 03:47:48;;;;;;;14.38;8.38;;;4.00;99.90;;;;;;4953288;29;20399;-83
2023/02/19 03:50:28;;;;;;;13.23;8.32;;;4.00;99.90;;;;;;4938060;29;20515;-82
2023/02/19 03:53:06;;;;;;;11.98;8.45;;;4.10;99.90;;;;;;4913302;29;20436;-83
2023/02/19 03:55:50;;;;;;;12.48;8.13;;;4.00;99.90;;;;;;4931158;29;20411;-83
2023/02/19 03:58:32;;;;;;;9.50;6.22;;;4.00;99.90;;;;;;4928423;29;20412;-84
2023/02/19 04:01:08;;;;;;;9.13;5.40;;;4.00;99.90;;;;;;4927930;28;20512;-82
2023/02/19 04:03:51;;;;;;;8.68;5.40;;;3.90;99.90;;;;;;4930264;28;20422;-82
2023/02/19 04:06:22;;;;;;;10.80;5.93;;;3.90;99.90;;;;;;4948174;29;20396;-83
2023/02/19 04:08:51;;;;;;;11.50;5.78;;;3.90;99.90;;;;;;4949488;28;20425;-84
2023/02/19 04:11:18;;;;;;;10.20;5.05;;;3.70;99.90;;;;;;4943510;28;20420;-83
2023/02/19 04:14:00;;;;;;;10.98;5.43;;;3.70;99.90;;;;;;4935013;29;20802;-83
2023/02/19 04:16:28;;;;;;;11.50;6.15;;;3.70;99.90;;;;;;4945926;29;20408;-81
2023/02/19 04:19:01;;;;;;;9.88;5.75;;;3.70;99.90;;;;;;4933853;29;20747;-83
2023/02/19 04:21:29;;;;;;;9.98;5.82;;;3.60;99.90;;;;;;4950241;28;20909;-82
2023/02/19 04:23:58;;;;;;;12.32;6.38;;;3.60;99.90;;;;;;4952395;29;20457;-83
2023/02/19 04:26:23;;;;;;;12.98;6.28;;;3.60;99.90;;;;;;4933611;29;20411;-83
2023/02/19 04:28:49;;;;;;;12.13;6.40;;;3.60;99.90;;;;;;4949828;29;20475;-83
2023/02/19 04:31:15;;;;;;;11.35;6.18;;;3.50;99.90;;;;;;4933181;29;20458;-83
2023/02/19 04:33:40;;;;;;;9.88;5.80;;;3.50;99.90;;;;;;4952760;29;20525;-83
2023/02/19 04:36:08;;;;;;;13.38;5.75;;;3.50;99.90;;;;;;4936090;29;20486;-83
2023/02/19 04:38:34;;;;;;;8.82;5.93;;;3.60;99.90;;;;;;4932535;29;20521;-83
2023/02/19 04:40:59;;;;;;;11.00;5.77;;;3.60;99.90;;;;;;4949777;28;20899;-83
2023/02/19 04:43:25;;;;;;;12.17;6.27;;;3.60;99.90;;;;;;4950498;29;21012;-84
2023/02/19 04:45:51;;;;;;;9.15;6.03;;;3.40;99.90;;;;;;4948983;29;20412;-83
2023/02/19 04:48:16;;;;;;;12.90;6.88;;;3.40;99.90;;;;;;4948836;29;20483;-83
2023/02/19 04:50:42;;;;;;;13.10;5.97;;;3.50;99.90;;;;;;4950378;29;20875;-82
2023/02/19 04:53:08;;;;;;;10.60;5.67;;;3.60;99.90;;;;;;4948479;28;20431;-83
2023/02/19 04:55:38;;;;;;;11.40;5.80;;;3.40;99.90;;;;;;4948268;29;21756;-82
2023/02/19 04:58:04;;;;;;;12.23;5.38;;;3.30;99.90;;;;;;4930677;29;20408;-82
2023/02/19 05:00:30;;;;;;;10.27;5.10;;;3.30;99.90;;;;;;4931206;29;20571;-82
2023/02/19 05:02:56;;;;;;;13.05;5.35;;;3.30;99.90;;;;;;4947880;28;20412;-83
2023/02/19 05:05:21;;;;;;;11.52;5.05;;;3.30;99.90;;;;;;4949850;29;20408;-83
2023/02/19 05:07:47;;;;;;;12.77;5.65;;;3.40;99.90;;;;;;4948778;29;20408;-82
2023/02/19 05:10:13;;;;;;;13.70;5.60;;;3.20;99.90;;;;;;4932307;29;20879;-83
2023/02/19 05:12:38;;;;;;;10.57;4.90;;;3.30;99.90;;;;;;4951648;28;20455;-83
2023/02/19 05:15:04;;;;;;;11.67;5.50;;;3.30;99.90;;;;;;4952376;29;20491;-83
2023/02/19 05:17:33;;;;;;;11.25;5.68;;;3.30;99.90;;;;;;4954201;29;20448;-83
2023/02/19 05:19:58;;;;;;;10.35;4.90;;;3.30;99.90;;;;;;4952373;29;20452;-83
2023/02/19 05:22:28;;;;;;;12.93;5.55;;;3.30;99.90;;;;;;4955713;29;20781;-83
2023/02/19 05:24:54;;;;;;;11.13;5.38;;;3.40;99.90;;;;;;4955088;29;20400;-82
2023/02/19 05:27:20;;;;;;;11.07;5.10;;;3.40;99.90;;;;;;4946761;28;20428;-84
2023/02/19 05:29:45;;;;;;;10.45;4.93;;;3.30;99.90;;;;;;4949731;29;21136;-84
2023/02/19 05:32:11;;;;;;;10.23;5.50;;;3.40;99.90;;;;;;4952041;29;20483;-83
2023/02/19 05:34:37;;;;;;;12.77;6.13;;;3.20;99.90;;;;;;4952306;29;20414;-83
2023/02/19 05:37:02;;;;;;;11.38;5.85;;;3.30;99.90;;;;;;4951414;28;20412;-83
2023/02/19 05:39:28;;;;;;;12.40;5.82;;;3.20;99.90;;;;;;4954311;29;20463;-84
2023/02/19 05:41:54;;;;;;;13.50;6.30;;;3.20;99.90;;;;;;4934063;29;20403;-84
2023/02/19 05:44:19;;;;;;;11.80;5.87;;;3.20;99.90;;;;;;4952478;29;20400;-84
2023/02/19 05:46:45;;;;;;;11.70;6.00;;;3.20;99.90;;;;;;4953221;29;20384;-83
2023/02/19 05:49:10;;;;;;;16.48;7.03;;;3.30;99.90;;;;;;4950015;28;20408;-83
2023/02/19 05:51:36;;;;;;;11.82;6.78;;;3.10;99.90;;;;;;4934874;29;20388;-83
2023/02/19 05:54:02;;;;;;;12.65;7.00;;;3.10;99.90;;;;;;4935981;29;20564;-84
2023/02/19 05:56:36;;;;;;;17.00;7.47;;;3.10;99.90;;;;;;4950402;29;20427;-83
2023/02/19 05:59:13;;;;;;;13.65;7.20;;;3.00;99.90;;;;;;4950326;29;20427;-84
2023/02/19 06:01:39;;;;;;;15.38;8.40;;;3.00;99.90;;;;;;4951648;29;20423;-84
2023/02/19 06:04:05;;;;;;;15.33;8.33;;;3.00;99.90;;;;;;4953057;29;20407;-84
2023/02/19 06:06:30;;;;;;;17.08;8.95;;;2.90;99.90;;;;;;4947952;29;20459;-83
2023/02/19 06:08:56;;;;;;;15.57;8.60;;;2.90;99.90;;;;;;4935701;29;20397;-83
2023/02/19 06:11:23;;;;;;;16.35;9.10;;;2.90;99.90;;;;;;4946980;29;20915;-83
2023/02/19 06:13:49;;;;;;;22.40;9.60;;;2.90;99.90;;;;;;4951158;29;20460;-83
2023/02/19 06:16:16;;;;;;;12.32;8.65;;;2.90;99.90;;;;;;4950405;29;20404;-83
2023/02/19 06:18:42;;;;;;;15.32;8.93;;;3.10;99.90;;;;;;4948080;28;20483;-83
2023/02/19 06:21:10;;;;;;;14.10;8.25;;;3.20;99.90;;;;;;4933770;29;20775;-84
2023/02/19 06:23:37;;;;;;;17.15;9.15;;;3.30;99.90;;;;;;4934382;29;20966;-83
2023/02/19 06:26:11;;;;;;;16.43;9.07;;;3.10;99.90;;;;;;4933826;29;20403;-83
2023/02/19 06:28:38;;;;;;;16.35;9.27;;;3.10;99.90;;;;;;4951506;29;20404;-83
2023/02/19 06:31:05;;;;;;;13.43;8.82;;;3.10;99.90;;;;;;4949680;29;20698;-82
2023/02/19 06:33:31;;;;;;;14.98;8.70;;;3.30;99.90;;;;;;4934292;29;20412;-83
2023/02/19 06:35:59;;;;;;;14.40;8.65;;;3.40;99.90;;;;;;4952258;29;20430;-83
2023/02/19 06:38:25;;;;;;;14.23;9.90;;;3.20;99.90;;;;;;4933580;29;20820;-83
2023/02/19 06:40:50;;;;;;;14.63;9.63;;;3.20;99.90;;;;;;4933178;28;20410;-83
2023/02/19 06:43:16;;;;;;;18.87;9.60;;;3.00;99.90;;;;;;4952204;29;20446;-83
2023/02/19 06:45:42;;;;;;;17.65;9.68;;;3.20;99.90;;;;;;4951542;29;20486;-85
2023/02/19 06:48:08;;;;;;;17.05;9.50;;;3.20;99.90;;;;;;4935777;29;20467;-84
2023/02/19 06:50:33;;;;;;;17.33;9.80;;;3.10;99.90;;;;;;4934855;29;20408;-83
2023/02/19 06:52:59;;;;;;;15.15;9.90;;;3.10;99.90;;;;;;4950587;29;20895;-83
2023/02/19 06:55:25;;;;;;;19.57;11.30;;;3.10;99.90;;;;;;4952260;29;20407;-83
2023/02/19 06:57:50;;;;;;;19.90;12.03;;;3.00;99.90;;;;;;4949694;29;20763;-83
2023/02/19 07:00:16;;;;;;;17.27;11.40;;;3.00;99.90;;;;;;4931283;28;20728;-84
2023/02/19 07:02:42;;;;;;;17.63;11.00;;;3.10;99.90;;;;;;4948539;28;20500;-84
2023/02/19 07:05:08;;;;;;;18.63;10.27;;;3.10;99.90;;;;;;4949736;29;20408;-83
2023/02/19 07:07:34;;;;;;;16.88;10.07;;;3.20;99.90;;;;;;4934619;29;20419;-83
2023/02/19 07:09:59;;;;;;;16.33;10.07;;;3.30;99.90;;;;;;4952168;29;20408;-83
2023/02/19 07:12:25;;;;;;;12.50;9.07;;;3.20;99.90;;;;;;4932521;29;20431;-83
2023/02/19 07:14:51;;;;;;;15.98;9.77;;;3.20;99.90;;;;;;4950055;28;20774;-84
2023/02/19 07:17:16;;;;;;;14.80;9.35;;;3.20;99.90;;;;;;4949147;29;20499;-83
2023/02/19 07:19:42;;;;;;;14.00;9.02;;;3.30;99.90;;;;;;4933956;29;20404;-83
2023/02/19 07:22:08;;;;;;;14.27;8.50;;;3.40;99.90;;;;;;4950375;28;20387;-83
2023/02/19 07:24:33;;;;;;;12.93;8.53;;;3.40;99.90;;;;;;4952233;28;20384;-83
2023/02/19 07:26:59;;;;;;;14.73;8.65;;;3.50;99.90;;;;;;4951336;29;20724;-83
2023/02/19 07:29:24;;;;;;;14.45;8.43;;;3.40;99.90;;;;;;4952312;28;20395;-83
2023/02/19 07:31:50;;;;;;;12.33;8.47;;;3.60;99.90;;;;;;4953208;28;20488;-83
2023/02/19 07:34:16;;;;;;;13.67;8.90;;;3.50;99.90;;;;;;4952901;28;20471;-83
2023/02/19 07:36:41;;;;;;;12.75;7.82;;;3.50;99.90;;;;;;4952957;29;20380;-84
2023/02/19 07:39:11;;;;;;;13.77;8.32;;;3.60;99.90;;;;;;4952375;29;20386;-84
2023/02/19 07:41:37;;;;;;;11.27;7.97;;;3.50;99.90;;;;;;4935126;29;20432;-84
2023/02/19 07:44:03;;;;;;;12.65;7.55;;;3.50;99.90;;;;;;4952317;29;20749;-84
2023/02/19 07:46:29;;;;;;;12.63;7.75;;;3.60;99.90;;;;;;4951915;29;20471;-83
2023/02/19 07:48:54;;;;;;;10.95;7.18;;;3.70;99.90;;;;;;4948348;28;20404;-83
2023/02/19 07:51:21;;;;;;;9.52;6.97;;;3.70;99.90;;;;;;4950184;29;20404;-84
2023/02/19 07:53:51;;;;;;;10.55;5.78;;;3.90;99.90;;;;;;4948360;29;20447;-83
2023/02/19 07:56:18;;;;;;;9.77;5.88;;;4.10;99.90;;;;;;4950755;29;20404;-83
2023/02/19 07:58:47;;;;;;;9.43;5.45;;;4.20;99.90;;;;;;4950559;29;20910;-83
2023/02/19 08:01:15;;;;;;;8.53;5.10;;;4.20;99.90;;;;;;4949794;28;20419;-83
2023/02/19 08:03:42;;;;;;;11.77;5.50;;;4.40;99.90;;;;;;4948342;29;20432;-82
2023/02/19 08:06:09;;;;;;;6.68;4.80;;;4.40;99.90;;;;;;4949661;29;20435;-82
2023/02/19 08:08:36;;;;;;;8.02;4.60;;;4.50;99.90;;;;;;4934531;29;20395;-83
2023/02/19 08:13:50;;;;;;;6.72;4.30;;;4.90;99.90;;;;;;4950448;29;20431;-82
2023/02/19 08:16:18;;;;;;;8.45;4.47;;;5.10;99.90;;;;;;4950201;28;20472;-83
2023/02/19 08:18:46;;;;;;;8.90;5.20;;;5.10;99.90;;;;;;4932667;29;20412;-82
2023/02/19 08:21:12;;;;;;;7.77;4.83;;;4.90;99.90;;;;;;4948969;28;20499;-82
2023/02/19 08:23:38;;;;;;;11.10;5.05;;;4.80;99.90;;;;;;4950141;29;20404;-82
2023/02/19 08:26:04;;;;;;;8.65;4.85;;;4.70;99.90;;;;;;4947068;29;20427;-83
2023/02/19 08:28:31;;;;;;;7.88;3.78;;;4.70;99.90;;;;;;4949595;29;20419;-82
2023/02/19 08:31:02;;;;;;;9.32;4.13;;;4.80;99.90;;;;;;4933112;29;20392;-82
2023/02/19 08:33:29;;;;;;;6.13;3.40;;;4.80;99.90;;;;;;4946660;28;20420;-83
2023/02/19 08:35:56;;;;;;;5.78;2.90;;;5.00;99.90;;;;;;4950124;29;21759;-82
2023/02/19 08:38:22;;;;;;;7.13;3.10;;;5.10;99.90;;;;;;4950140;29;20388;-83
2023/02/19 08:40:48;;;;;;;7.05;2.78;;;5.10;99.90;;;;;;4950194;29;20487;-81
2023/02/19 08:43:16;;;;;;;7.13;2.80;;;5.40;99.90;;;;;;4937697;28;20511;-83
2023/02/19 08:45:44;;;;;;;8.05;2.88;;;5.60;99.90;;;;;;4949742;28;20404;-83
2023/02/19 08:48:10;;;;;;;5.93;2.33;;;5.70;99.90;;;;;;4935525;29;20396;-82
2023/02/19 08:50:37;;;;;;;4.47;2.28;;;5.60;99.90;;;;;;4935419;29;20410;-82
2023/02/19 08:53:04;;;;;;;6.18;2.05;;;5.80;99.90;;;;;;4934779;29;20614;-82
2023/02/19 08:55:29;;;;;;;4.13;2.05;;;6.00;99.90;;;;;;4953741;29;20472;-82
2023/02/19 08:57:55;;;;;;;5.63;2.00;;;6.60;99.90;;;;;;4949902;29;20431;-82
2023/02/19 09:00:21;;;;;;;5.78;2.00;;;6.90;99.90;;;;;;4936102;29;20929;-82
2023/02/19 09:02:47;;;;;;;7.22;2.35;;;6.80;99.90;;;;;;4949754;28;20878;-82
2023/02/19 09:05:13;;;;;;;9.90;2.70;;;6.60;99.90;;;;;;4952174;28;20491;-81
2023/02/19 09:07:40;;;;;;;6.97;2.40;;;6.40;99.90;;;;;;4952540;29;20428;-81
2023/02/19 09:10:06;;;;;;;5.90;2.00;;;6.20;99.90;;;;;;4950075;29;20846;-80
2023/02/19 09:12:32;;;;;;;7.20;2.50;;;6.50;99.90;;;;;;4951489;28;20439;-81
2023/02/19 09:14:59;;;;;;;7.60;2.20;;;6.40;99.90;;;;;;4952115;28;20445;-82
2023/02/19 09:17:25;;;;;;;7.47;2.30;;;6.40;99.90;;;;;;4942131;28;20820;-79
2023/02/19 09:19:54;;;;;;;8.32;2.20;;;6.80;99.90;;;;;;4952913;29;20396;-81
2023/02/19 09:22:19;;;;;;;8.60;2.60;;;6.40;99.90;;;;;;4953115;29;20380;-82
2023/02/19 09:24:45;;;;;;;8.07;2.10;;;6.30;99.90;;;;;;4950316;28;20408;-81
2023/02/19 09:27:16;;;;;;;6.10;2.10;;;6.70;99.90;;;;;;4952880;29;20782;-82
2023/02/19 09:29:42;;;;;;;6.75;2.10;;;7.30;99.90;;;;;;4953400;29;20713;-83
2023/02/19 09:32:07;;;;;;;5.03;2.10;;;7.90;99.90;;;;;;4950538;28;20408;-82
2023/02/19 09:34:33;;;;;;;6.65;2.20;;;8.30;99.90;;;;;;4953509;29;20408;-82
2023/02/19 09:36:59;;;;;;;9.17;2.20;;;8.70;99.90;;;;;;4933017;29;20420;-81
2023/02/19 09:39:24;;;;;;;6.25;2.05;;;8.80;99.90;;;;;;4952543;29;20388;-85
2023/02/19 09:42:01;;;;;;;4.28;1.92;;;9.30;99.90;;;;;;4934750;29;21061;-78
2023/02/19 09:44:38;;;;;;;7.28;1.95;;;9.60;99.90;;;;;;4953087;29;20395;-77
2023/02/19 09:47:12;;;;;;;5.13;1.85;;;9.20;99.90;;;;;;4953727;29;20387;-82
2023/02/19 09:49:40;;;;;;;6.67;2.00;;;9.30;99.90;;;;;;4953522;28;20384;-82
2023/02/19 09:52:37;;;;;;;5.55;2.17;;;8.50;99.90;;;;;;4952856;28;20505;-82
2023/02/19 09:55:17;;;;;;;6.20;2.38;;;7.50;99.90;;;;;;4951181;28;20415;-82
2023/02/19 09:57:44;;;;;;;7.00;2.50;;;6.70;99.90;;;;;;4935720;29;20686;-83
2023/02/19 10:00:22;;;;;;;5.70;2.08;;;7.50;99.90;;;;;;4952172;28;20395;-83
2023/02/19 10:03:05;;;;;;;8.18;2.28;;;8.60;99.90;;;;;;4952122;28;20412;-81
2023/02/19 10:05:33;;;;;;;6.07;2.00;;;8.80;99.90;;;;;;4953141;29;20468;-83
2023/02/19 10:07:59;;;;;;;6.13;2.20;;;9.10;99.90;;;;;;4952585;28;20472;-83
2023/02/19 10:10:33;;;;;;;6.22;2.05;;;9.70;99.90;;;;;;4953470;28;20384;-83
2023/02/19 10:13:22;;;;;;;6.72;2.15;;;10.00;99.90;;;;;;4952915;28;20494;-82
2023/02/19 10:15:49;;;;;;;4.67;1.97;;;9.10;99.90;;;;;;4949365;28;20507;-83
2023/02/19 10:18:18;;;;;;;6.63;2.03;;;8.70;99.90;;;;;;4952806;29;20436;-81
2023/02/19 10:20:44;;;;;;;8.10;2.40;;;8.30;99.90;;;;;;4934877;29;20396;-82
2023/02/19 10:23:13;;;;;;;6.32;1.77;;;8.40;99.90;;;;;;4952821;29;20433;-83
2023/02/19 10:25:55;;;;;;;6.97;1.83;;;9.00;99.90;;;;;;4932519;29;20915;-81
2023/02/19 10:28:27;;;;;;;6.18;1.98;;;9.80;99.90;;;;;;4951378;29;20426;-85
2023/02/19 10:30:56;;;;;;;7.43;2.15;;;10.00;99.90;;;;;;4952376;29;20455;-84
2023/02/19 10:33:23;;;;;;;4.88;2.22;;;9.10;99.90;;;;;;4934002;29;20913;-84
2023/02/19 10:36:05;;;;;;;11.57;4.82;;;8.70;99.90;;;;;;4951801;29;20886;-83
2023/02/19 10:38:38;;;;;;;6.13;1.80;;;8.70;99.90;;;;;;4949141;28;20928;-81
2023/02/19 10:41:07;;;;;;;6.20;1.85;;;8.90;99.90;;;;;;4951758;29;21154;-84
2023/02/19 10:43:41;;;;;;;5.70;1.98;;;8.60;99.90;;;;;;4933815;29;20408;-82
2023/02/19 10:46:28;;;;;;;6.60;1.67;;;8.30;99.90;;;;;;4954844;28;20400;-85
2023/02/19 10:48:55;;;;;;;6.10;2.08;;;8.30;99.90;;;;;;4937137;28;20922;-83
2023/02/19 10:51:29;;;;;;;6.60;1.60;;;8.80;99.90;;;;;;4958806;28;20389;-85
2023/02/19 10:54:43;;;;;;;6.00;1.97;;;9.60;99.90;;;;;;4940767;28;20418;-85
2023/02/19 10:57:18;;;;;;;6.53;1.90;;;9.30;99.90;;;;;;4954334;28;20410;-82
2023/02/19 11:00:13;;;;;;;5.80;1.80;;;8.60;99.90;;;;;;4960668;28;20705;-84
2023/02/19 11:02:47;;;;;;;4.65;1.80;;;8.00;99.90;;;;;;4961873;28;20850;-84
2023/02/19 11:05:19;;;;;;;5.35;1.85;;;7.80;99.90;;;;;;4933669;29;20491;-84
2023/02/19 11:07:55;;;;;;;5.97;1.70;;;7.30;99.90;;;;;;4952731;28;20750;-84
2023/02/19 11:10:28;;;;;;;6.47;1.70;;;7.60;99.90;;;;;;4935503;29;20399;-83
2023/02/19 11:13:01;;;;;;;5.30;1.60;;;7.90;99.90;;;;;;4950857;29;20423;-84
2023/02/19 11:15:32;;;;;;;5.37;1.90;;;8.10;99.90;;;;;;4936138;29;20400;-85
2023/02/19 11:18:07;;;;;;;3.85;1.55;;;8.60;99.90;;;;;;4952381;29;20389;-83
2023/02/19 11:20:33;;;;;;;4.28;1.50;;;8.50;99.90;;;;;;4950297;28;20452;-84
2023/02/19 11:23:11;;;;;;;5.57;1.50;;;8.60;99.90;;;;;;4951459;28;20441;-83
2023/02/19 11:25:47;;;;;;;4.47;1.50;;;8.40;99.90;;;;;;4952266;29;20421;-82
2023/02/19 11:28:16;;;;;;;4.55;1.48;;;8.50;99.90;;;;;;4951390;28;20452;-83
2023/02/19 11:30:44;;;;;;;4.67;1.40;;;9.00;99.90;;;;;;4952311;29;20388;-84
2023/02/19 11:33:15;;;;;;;6.22;1.63;;;9.00;99.90;;;;;;4953482;29;20514;-83
2023/02/19 11:36:10;;;;;;;5.13;1.55;;;9.00;99.90;;;;;;4955193;28;20484;-84
2023/02/19 11:38:35;;;;;;;2.83;1.23;;;9.40;99.90;;;;;;4948348;28;20419;-83
2023/02/19 11:41:36;;;;;;;4.63;1.60;;;9.20;99.90;;;;;;4932848;29;20464;-84
2023/02/19 11:44:17;;;;;;;9.65;2.00;;;8.80;99.90;;;;;;4924222;29;21325;-84
2023/02/19 11:46:56;;;;;;;4.32;1.60;;;8.10;99.90;;;;;;4941166;29;20416;-83
2023/02/19 11:49:27;;;;;;;5.82;1.80;;;7.80;99.90;;;;;;4939106;28;20431;-83
2023/02/19 11:52:11;;;;;;;3.53;1.60;;;7.70;99.90;;;;;;4940307;29;20479;-83
2023/02/19 11:54:51;;;;;;;6.38;1.70;;;7.80;99.90;;;;;;4947700;29;20468;-84
2023/02/19 11:57:40;;;;;;;5.80;1.80;;;7.50;99.90;;;;;;4947367;29;20404;-84
2023/02/19 12:00:26;;;;;;;6.30;1.90;;;7.20;99.90;;;;;;4931025;29;20736;-84
2023/02/19 12:03:26;;;;;;;5.28;1.98;;;7.00;99.90;;;;;;4944489;29;20908;-83
2023/02/19 12:06:15;;;;;;;5.95;1.80;;;6.80;99.90;;;;;;4943133;29;20392;-83
2023/02/19 12:08:59;;;;;;;4.80;1.90;;;6.70;99.90;;;;;;4939016;28;21128;-84
2023/02/19 12:11:42;;;;;;;6.85;1.75;;;6.70;99.90;;;;;;4945846;29;20400;-84
2023/02/19 12:14:21;;;;;;;3.65;1.38;;;6.80;99.90;;;;;;4941845;29;20803;-85
2023/02/19 12:16:57;;;;;;;6.72;2.13;;;6.80;99.90;;;;;;4940052;29;20396;-82
2023/02/19 12:19:41;;;;;;;5.18;1.48;;;6.90;99.90;;;;;;4945901;29;20404;-82
2023/02/19 12:22:29;;;;;;;6.97;1.70;;;7.10;99.90;;;;;;4945757;28;20416;-83
2023/02/19 12:25:30;;;;;;;6.22;2.00;;;7.30;99.90;;;;;;4954267;28;20442;-83
2023/02/19 12:28:13;;;;;;;5.97;1.95;;;7.20;99.90;;;;;;4936765;29;20474;-85
2023/02/19 12:30:47;;;;;;;7.05;1.85;;;7.20;99.90;;;;;;4951579;28;20866;-83
2023/02/19 12:33:31;;;;;;;4.45;1.70;;;7.20;99.90;;;;;;4950906;29;20428;-84
2023/02/19 12:36:08;;;;;;;5.68;1.80;;;7.10;99.90;;;;;;4935458;29;21070;-84
2023/02/19 12:38:39;;;;;;;4.85;1.80;;;7.30;99.90;;;;;;4950103;29;20882;-84
2023/02/19 12:41:17;;;;;;;4.57;1.48;;;7.70;99.90;;;;;;4959628;28;20833;-83
2023/02/19 12:43:51;;;;;;;6.53;1.70;;;7.50;99.90;;;;;;4961037;28;20382;-84
2023/02/19 12:46:28;;;;;;;5.18;1.88;;;7.10;99.90;;;;;;4964995;28;20482;-84
2023/02/19 12:49:13;;;;;;;4.10;1.58;;;7.20;99.90;;;;;;4964236;28;20398;-84
2023/02/19 12:51:48;;;;;;;4.90;1.30;;;7.10;99.90;;;;;;4954950;28;20415;-83
2023/02/19 12:54:37;;;;;;;6.47;1.63;;;7.10;99.90;;;;;;4934176;29;20460;-84
2023/02/19 12:57:23;;;;;;;4.43;1.77;;;6.90;99.90;;;;;;4949509;29;20517;-85
2023/02/19 12:59:54;;;;;;;5.97;1.70;;;7.10;99.90;;;;;;4933450;29;20818;-87
2023/02/19 13:02:32;;;;;;;5.07;1.40;;;7.40;99.90;;;;;;4948376;28;20519;-86
2023/02/19 13:05:13;;;;;;;4.22;1.70;;;7.70;99.90;;;;;;4950594;29;20390;-84
2023/02/19 13:08:03;;;;;;;5.40;1.60;;;8.00;99.90;;;;;;4948304;28;20961;-84
2023/02/19 13:10:35;;;;;;;4.60;1.55;;;8.10;99.90;;;;;;4950118;28;20435;-84
2023/02/19 13:13:08;;;;;;;6.00;1.52;;;8.20;99.90;;;;;;4947809;28;20452;-83
2023/02/19 13:15:50;;;;;;;4.93;1.60;;;8.30;99.90;;;;;;4948312;28;20420;-85
2023/02/19 13:18:27;;;;;;;2.97;1.30;;;8.30;99.90;;;;;;4951289;28;20416;-84
2023/02/19 13:20:55;;;;;;;5.13;1.42;;;8.10;99.90;;;;;;4949079;28;20468;-84
2023/02/19 13:26:47;;;;;;;5.47;1.60;;;8.20;99.90;;;;;;4950302;28;20439;-85
2023/02/19 13:29:33;;;;;;;7.35;1.65;;;8.40;99.90;;;;;;4945597;29;20396;-84
2023/02/19 13:32:00;;;;;;;4.13;1.60;;;8.30;99.90;;;;;;4955994;28;20463;-83
2023/02/19 13:35:07;;;;;;;5.15;1.52;;;8.20;99.90;;;;;;4949644;28;20424;-83
2023/02/19 13:37:35;;;;;;;3.78;1.40;;;8.10;99.90;;;;;;4951291;28;20801;-86
2023/02/19 13:40:41;;;;;;;5.25;1.50;;;8.20;99.90;;;;;;4952698;29;20447;-84
2023/02/19 13:43:29;;;;;;;7.10;1.50;;;8.30;99.90;;;;;;4931244;29;20537;-83
2023/02/19 13:46:07;;;;;;;4.82;1.80;;;8.50;99.90;;;;;;4943028;29;20404;-85
2023/02/19 13:48:36;;;;;;;6.13;1.75;;;8.70;99.90;;;;;;4946205;28;20510;-85